Impacts TAF Board INFO
FOR SITUATIONAL AWARENESS. NOT TO BE USED FOR FLIGHT PLANNING PURPOSES.
IDs:

KIAD - Washington/Dulles In, VA, US

Issued at 0530 UTC 28 Mar 2017
Updated at 0804 UTC 28 Mar 2017
Potential Impact None Slight Moderate High
Time0752Z 28/09Z 28/10Z 28/11Z 28/12Z 28/13Z 28/14Z 28/15Z 28/16Z 28/17Z 28/18Z 28/19Z 28/20Z 28/21Z
Type OBS PRVL PRVL PRVL PRVL PRVL PRVL PRVL PRVL PRVL PRVL PRVL PRVL PRVL
VIS 9 2 2 2 2 >6 >6 >6 >6 >6 >6 >6 >6 >6
CIG 100 60 60 50 50 35 35 35 35 35 35 35 35 35
Cover BKN OVC OVC BKN BKN OVC OVC OVC OVC OVC OVC OVC OVC OVC
FltCat VFR IFR IFR IFR IFR VFR VFR VFR VFR VFR VFR VFR VFR VFR
WX -- BR BR -SHRA BR -SHRA BR -SHRA -SHRA -SHRA -SHRA -SHRA -SHRA -SHRA -SHRA -SHRA
WDir VRB VRB VRB VRB VRB 200 200 200 200 200 200 200 200 200
WSpd 0 3 3 0 0 5 5 5 5 5 5 5 5 5
WGst -- -- -- -- -- -- -- -- -- -- -- -- -- --

Raw TAF
KIAD 280530Z 2806/2912 00000KT P6SM FEW180 BKN240
  FM280900 VRB03KT 2SM BR OVC060
  FM281100 00000KT 2SM -SHRA BR BKN050
  FM281300 20005KT P6SM -SHRA OVC035
  FM282300 28004KT P6SM -SHRA BKN040
  FM290000 32005KT P6SM BKN040
  FM290600 34006KT P6SM BKN010
  FM290900 34009KT P6SM SCT025
  FM291100 34007KT P6SM SCT025


Raw METAR
KIAD 280752Z COR 00000KT 9SM FEW085 BKN100 BKN220 14/13 A2985 RMK AO2 OCNL LTG DSNT SW AND NW SLP105 T01440133
KIAD 280652Z 16004KT 8SM MIFG BKN100 BKN220 13/12 A2987 RMK AO2 SLP111 T01280122
KIAD 280552Z 00000KT 9SM BCFG SCT110 BKN220 14/13 A2988 RMK AO2 SLP117 60004 T01390128 10200 20133 58010

METAR Board
Radar Display
Forecast Discussion

FOR SITUATIONAL AWARENESS. NOT TO BE USED FOR FLIGHT PLANNING PURPOSES.

Page loaded:  08:04 UTC  |   01:04 AM Pacific  |   02:04 AM Mountain  |   03:04 AM Central  |   04:04 AM Eastern

 

ADVISORIES

FORECASTS

FORECASTS

OBSERVATIONS

USER TOOLS

ABOUT US